This is the latest recevied weather packets stored in our database for station/object K6JWN. If no packets are shown the sender has not sent any weather packets the latest 10 day(s).
| Time | Temp. | Humidity | Pressure | Rain* | Wind** | Luminosity | Snow |
|---|---|---|---|---|---|---|---|
| 1777716136 | 13.33° C | 60% | 1010.9 hPa | 0 mm | - | - | - |
| 1777715536 | 13.33° C | 58% | 1011 hPa | 0 mm | - | - | - |
| 1777714936 | 13.33° C | 59% | 1011.1 hPa | 0 mm | - | - | - |
| 1777714336 | 12.78° C | 62% | 1011 hPa | 0 mm | - | - | - |
| 1777713736 | 12.78° C | 62% | 1011.2 hPa | 0 mm | - | - | - |
| 1777713136 | 13.33° C | 62% | 1011 hPa | 0 mm | - | - | - |
| 1777712536 | 13.33° C | 62% | 1011 hPa | 0 mm | - | - | - |
| 1777711936 | 13.33° C | 62% | 1011.2 hPa | 0 mm | - | - | - |
| 1777711336 | 13.89° C | 62% | 1011.2 hPa | 0 mm | - | - | - |
| 1777710736 | 13.89° C | 62% | 1011.2 hPa | 0 mm | - | - | - |
| 1777710136 | 13.89° C | 62% | 1011.3 hPa | 0 mm | - | - | - |
| 1777709536 | 13.89° C | 63% | 1011.3 hPa | 0 mm | - | - | - |
| 1777708936 | 13.89° C | 64% | 1011.4 hPa | 0 mm | - | - | - |
| 1777708336 | 13.89° C | 65% | 1011.5 hPa | 0 mm | - | - | - |
| 1777707736 | 13.89° C | 65% | 1011.3 hPa | 0 mm | - | - | - |
| 1777707136 | 14.44° C | 64% | 1011.5 hPa | 0 mm | - | - | - |
| 1777706536 | 14.44° C | 64% | 1011.5 hPa | 0 mm | - | - | - |
| 1777705936 | 15° C | 65% | 1011.4 hPa | 0 mm | - | - | - |
| 1777705336 | 15° C | 64% | 1011.5 hPa | 0 mm | - | - | - |
| 1777704737 | 15.56° C | 62% | 1011.4 hPa | 0 mm | - | - | - |
| 1777704138 | 15.56° C | 63% | 1011.4 hPa | 0 mm | - | - | - |
| 1777703537 | 15.56° C | 59% | 1011.2 hPa | 0 mm | - | - | - |
| 1777702937 | 16.11° C | 58% | 1011.3 hPa | 0 mm | - | - | - |
| 1777702338 | 15.56° C | 62% | 1011.4 hPa | 0 mm | - | - | - |
| 1777701738 | 16.11° C | 60% | 1011.3 hPa | 0 mm | - | - | - |
* Rain latest hour (hover to see other rain measurements)
** Current wind speed in m/s (hover to see current wind gust speed)